sensor_id;sensor_type;location;lat;lon;timestamp;P1;durP1;ratioP1;P2;durP2;ratioP2
5257;SDS011;2651;51.594;9.928;2023-10-19T00:00:52;14.40;;;8.98;;
5257;SDS011;2651;51.594;9.928;2023-10-19T00:01:57;12.98;;;8.13;;
5257;SDS011;2651;51.594;9.928;2023-10-19T00:02:59;14.25;;;7.43;;
5257;SDS011;2651;51.594;9.928;2023-10-19T00:04:04;22.08;;;8.18;;
5257;SDS011;2651;51.594;9.928;2023-10-19T00:05:08;13.77;;;7.55;;
5257;SDS011;2651;51.594;9.928;2023-10-19T00:06:10;12.93;;;8.00;;
5257;SDS011;2651;51.594;9.928;2023-10-19T00:07:15;15.50;;;8.02;;
5257;SDS011;2651;51.594;9.928;2023-10-19T00:08:17;12.05;;;8.07;;
5257;SDS011;2651;51.594;9.928;2023-10-19T00:09:21;19.23;;;9.32;;
5257;SDS011;2651;51.594;9.928;2023-10-19T00:10:23;13.80;;;7.70;;
5257;SDS011;2651;51.594;9.928;2023-10-19T00:11:30;13.32;;;8.52;;
5257;SDS011;2651;51.594;9.928;2023-10-19T00:12:32;13.82;;;8.82;;
5257;SDS011;2651;51.594;9.928;2023-10-19T00:13:34;18.27;;;9.40;;
5257;SDS011;2651;51.594;9.928;2023-10-19T00:14:40;14.38;;;8.38;;
5257;SDS011;2651;51.594;9.928;2023-10-19T00:15:42;14.50;;;8.00;;
5257;SDS011;2651;51.594;9.928;2023-10-19T00:16:54;15.68;;;8.60;;
5257;SDS011;2651;51.594;9.928;2023-10-19T00:18:01;12.45;;;7.57;;
5257;SDS011;2651;51.594;9.928;2023-10-19T00:19:19;12.52;;;8.35;;
5257;SDS011;2651;51.594;9.928;2023-10-19T00:20:21;21.63;;;8.60;;
5257;SDS011;2651;51.594;9.928;2023-10-19T00:21:52;16.95;;;8.65;;
5257;SDS011;2651;51.594;9.928;2023-10-19T00:22:56;14.52;;;8.10;;
5257;SDS011;2651;51.594;9.928;2023-10-19T00:23:59;19.20;;;9.40;;
5257;SDS011;2651;51.594;9.928;2023-10-19T00:25:05;15.23;;;8.52;;
5257;SDS011;2651;51.594;9.928;2023-10-19T00:26:10;17.60;;;8.50;;
5257;SDS011;2651;51.594;9.928;2023-10-19T00:27:16;22.65;;;9.80;;
5257;SDS011;2651;51.594;9.928;2023-10-19T00:28:20;19.15;;;10.07;;
5257;SDS011;2651;51.594;9.928;2023-10-19T00:29:23;16.98;;;9.10;;
5257;SDS011;2651;51.594;9.928;2023-10-19T00:30:31;14.63;;;8.13;;
5257;SDS011;2651;51.594;9.928;2023-10-19T00:31:36;13.82;;;8.73;;
5257;SDS011;2651;51.594;9.928;2023-10-19T00:32:41;12.93;;;8.43;;
5257;SDS011;2651;51.594;9.928;2023-10-19T00:33:44;17.33;;;8.65;;
5257;SDS011;2651;51.594;9.928;2023-10-19T00:34:46;22.58;;;9.88;;
5257;SDS011;2651;51.594;9.928;2023-10-19T00:35:55;15.52;;;8.10;;
5257;SDS011;2651;51.594;9.928;2023-10-19T00:37:01;15.70;;;8.30;;
5257;SDS011;2651;51.594;9.928;2023-10-19T00:38:08;17.05;;;9.38;;
5257;SDS011;2651;51.594;9.928;2023-10-19T00:39:28;14.85;;;8.82;;
5257;SDS011;2651;51.594;9.928;2023-10-19T00:40:41;16.73;;;8.40;;
5257;SDS011;2651;51.594;9.928;2023-10-19T00:41:48;15.05;;;8.60;;
5257;SDS011;2651;51.594;9.928;2023-10-19T00:42:50;17.17;;;9.45;;
5257;SDS011;2651;51.594;9.928;2023-10-19T00:43:56;13.65;;;7.97;;
5257;SDS011;2651;51.594;9.928;2023-10-19T00:45:03;17.92;;;9.98;;
5257;SDS011;2651;51.594;9.928;2023-10-19T00:46:06;19.17;;;10.23;;
5257;SDS011;2651;51.594;9.928;2023-10-19T00:47:15;15.13;;;9.30;;
5257;SDS011;2651;51.594;9.928;2023-10-19T00:48:20;16.50;;;9.88;;
5257;SDS011;2651;51.594;9.928;2023-10-19T00:49:27;18.75;;;9.15;;
5257;SDS011;2651;51.594;9.928;2023-10-19T00:50:30;17.02;;;9.10;;
5257;SDS011;2651;51.594;9.928;2023-10-19T00:51:36;17.75;;;9.85;;
5257;SDS011;2651;51.594;9.928;2023-10-19T00:52:43;16.55;;;9.55;;
5257;SDS011;2651;51.594;9.928;2023-10-19T00:53:51;17.65;;;8.80;;
5257;SDS011;2651;51.594;9.928;2023-10-19T00:54:55;16.80;;;10.32;;
5257;SDS011;2651;51.594;9.928;2023-10-19T00:55:59;18.38;;;9.55;;
5257;SDS011;2651;51.594;9.928;2023-10-19T00:57:03;19.35;;;10.20;;
5257;SDS011;2651;51.594;9.928;2023-10-19T00:58:08;15.65;;;9.38;;
5257;SDS011;2651;51.594;9.928;2023-10-19T00:59:10;15.57;;;9.00;;
5257;SDS011;2651;51.594;9.928;2023-10-19T01:00:16;21.98;;;9.30;;
5257;SDS011;2651;51.594;9.928;2023-10-19T01:01:35;16.85;;;8.82;;
5257;SDS011;2651;51.594;9.928;2023-10-19T01:02:44;20.23;;;10.18;;
5257;SDS011;2651;51.594;9.928;2023-10-19T01:03:47;15.38;;;9.18;;
5257;SDS011;2651;51.594;9.928;2023-10-19T01:04:54;15.65;;;8.60;;
5257;SDS011;2651;51.594;9.928;2023-10-19T01:06:06;17.35;;;10.07;;
5257;SDS011;2651;51.594;9.928;2023-10-19T01:07:11;15.65;;;9.05;;
5257;SDS011;2651;51.594;9.928;2023-10-19T01:08:16;16.00;;;9.57;;
5257;SDS011;2651;51.594;9.928;2023-10-19T01:09:27;16.25;;;8.88;;
5257;SDS011;2651;51.594;9.928;2023-10-19T01:10:29;15.77;;;9.00;;
5257;SDS011;2651;51.594;9.928;2023-10-19T01:11:33;15.27;;;9.05;;
5257;SDS011;2651;51.594;9.928;2023-10-19T01:12:36;17.75;;;10.23;;
5257;SDS011;2651;51.594;9.928;2023-10-19T01:13:41;15.98;;;8.63;;
5257;SDS011;2651;51.594;9.928;2023-10-19T01:15:10;12.75;;;8.18;;
5257;SDS011;2651;51.594;9.928;2023-10-19T01:16:17;15.57;;;10.35;;
5257;SDS011;2651;51.594;9.928;2023-10-19T01:17:23;19.60;;;9.40;;
5257;SDS011;2651;51.594;9.928;2023-10-19T01:18:27;16.80;;;9.95;;
5257;SDS011;2651;51.594;9.928;2023-10-19T01:19:31;20.08;;;9.95;;
5257;SDS011;2651;51.594;9.928;2023-10-19T01:20:32;17.13;;;10.27;;
5257;SDS011;2651;51.594;9.928;2023-10-19T01:21:34;19.25;;;9.63;;
5257;SDS011;2651;51.594;9.928;2023-10-19T01:22:44;15.15;;;9.65;;
5257;SDS011;2651;51.594;9.928;2023-10-19T01:24:12;17.30;;;9.82;;
5257;SDS011;2651;51.594;9.928;2023-10-19T01:25:18;19.48;;;10.23;;
5257;SDS011;2651;51.594;9.928;2023-10-19T01:26:20;19.30;;;10.75;;
5257;SDS011;2651;51.594;9.928;2023-10-19T01:27:28;21.45;;;10.27;;
5257;SDS011;2651;51.594;9.928;2023-10-19T01:28:31;18.23;;;9.90;;
5257;SDS011;2651;51.594;9.928;2023-10-19T01:29:43;20.92;;;10.45;;
5257;SDS011;2651;51.594;9.928;2023-10-19T01:30:45;14.95;;;10.38;;
5257;SDS011;2651;51.594;9.928;2023-10-19T01:31:53;22.67;;;11.45;;
5257;SDS011;2651;51.594;9.928;2023-10-19T01:33:07;17.77;;;9.10;;
5257;SDS011;2651;51.594;9.928;2023-10-19T01:34:14;17.08;;;10.65;;
5257;SDS011;2651;51.594;9.928;2023-10-19T01:35:16;19.52;;;10.30;;
5257;SDS011;2651;51.594;9.928;2023-10-19T01:36:20;14.75;;;9.57;;
5257;SDS011;2651;51.594;9.928;2023-10-19T01:37:22;15.27;;;9.68;;
5257;SDS011;2651;51.594;9.928;2023-10-19T01:38:24;17.02;;;9.57;;
5257;SDS011;2651;51.594;9.928;2023-10-19T01:39:26;18.25;;;10.35;;
5257;SDS011;2651;51.594;9.928;2023-10-19T01:40:28;20.42;;;10.63;;
5257;SDS011;2651;51.594;9.928;2023-10-19T01:41:35;21.63;;;10.10;;
5257;SDS011;2651;51.594;9.928;2023-10-19T01:42:36;16.65;;;9.63;;
5257;SDS011;2651;51.594;9.928;2023-10-19T01:43:42;19.33;;;10.13;;
5257;SDS011;2651;51.594;9.928;2023-10-19T01:44:46;19.13;;;11.85;;
5257;SDS011;2651;51.594;9.928;2023-10-19T01:45:47;24.15;;;11.57;;
5257;SDS011;2651;51.594;9.928;2023-10-19T01:46:49;19.98;;;10.65;;
5257;SDS011;2651;51.594;9.928;2023-10-19T01:47:51;21.92;;;12.38;;
5257;SDS011;2651;51.594;9.928;2023-10-19T01:48:53;15.68;;;10.52;;
5257;SDS011;2651;51.594;9.928;2023-10-19T01:49:58;18.50;;;10.43;;
5257;SDS011;2651;51.594;9.928;2023-10-19T01:51:01;21.05;;;10.80;;
5257;SDS011;2651;51.594;9.928;2023-10-19T01:52:08;17.08;;;10.35;;
5257;SDS011;2651;51.594;9.928;2023-10-19T01:53:11;21.23;;;11.65;;
5257;SDS011;2651;51.594;9.928;2023-10-19T01:54:19;25.33;;;9.40;;
5257;SDS011;2651;51.594;9.928;2023-10-19T01:55:26;22.00;;;11.18;;
5257;SDS011;2651;51.594;9.928;2023-10-19T01:56:28;18.02;;;10.75;;
5257;SDS011;2651;51.594;9.928;2023-10-19T01:57:30;19.30;;;10.30;;
5257;SDS011;2651;51.594;9.928;2023-10-19T01:58:32;18.00;;;9.85;;
5257;SDS011;2651;51.594;9.928;2023-10-19T01:59:38;16.70;;;10.25;;
5257;SDS011;2651;51.594;9.928;2023-10-19T02:00:40;22.27;;;11.10;;
5257;SDS011;2651;51.594;9.928;2023-10-19T02:01:44;17.80;;;10.18;;
5257;SDS011;2651;51.594;9.928;2023-10-19T02:02:47;17.65;;;10.57;;
5257;SDS011;2651;51.594;9.928;2023-10-19T02:03:49;21.90;;;10.63;;
5257;SDS011;2651;51.594;9.928;2023-10-19T02:04:56;15.80;;;10.45;;
5257;SDS011;2651;51.594;9.928;2023-10-19T02:05:58;19.50;;;9.57;;
5257;SDS011;2651;51.594;9.928;2023-10-19T02:07:00;21.77;;;11.15;;
5257;SDS011;2651;51.594;9.928;2023-10-19T02:08:04;17.17;;;10.02;;
5257;SDS011;2651;51.594;9.928;2023-10-19T02:09:10;18.40;;;10.15;;
5257;SDS011;2651;51.594;9.928;2023-10-19T02:10:19;17.15;;;9.80;;
5257;SDS011;2651;51.594;9.928;2023-10-19T02:11:21;20.63;;;10.43;;
5257;SDS011;2651;51.594;9.928;2023-10-19T02:12:24;19.70;;;11.35;;
5257;SDS011;2651;51.594;9.928;2023-10-19T02:13:26;17.45;;;10.35;;
5257;SDS011;2651;51.594;9.928;2023-10-19T02:14:27;16.45;;;11.05;;
5257;SDS011;2651;51.594;9.928;2023-10-19T02:15:30;20.15;;;10.60;;
5257;SDS011;2651;51.594;9.928;2023-10-19T02:16:32;22.63;;;10.77;;
5257;SDS011;2651;51.594;9.928;2023-10-19T02:17:34;20.15;;;11.25;;
5257;SDS011;2651;51.594;9.928;2023-10-19T02:18:36;14.45;;;9.85;;
5257;SDS011;2651;51.594;9.928;2023-10-19T02:19:39;19.70;;;10.90;;
5257;SDS011;2651;51.594;9.928;2023-10-19T02:20:41;21.48;;;11.50;;
5257;SDS011;2651;51.594;9.928;2023-10-19T02:21:50;16.10;;;10.38;;
5257;SDS011;2651;51.594;9.928;2023-10-19T02:22:53;19.23;;;10.60;;
5257;SDS011;2651;51.594;9.928;2023-10-19T02:23:58;18.73;;;10.90;;
5257;SDS011;2651;51.594;9.928;2023-10-19T02:24:59;15.55;;;9.73;;
5257;SDS011;2651;51.594;9.928;2023-10-19T02:26:01;17.83;;;10.23;;
5257;SDS011;2651;51.594;9.928;2023-10-19T02:27:04;16.10;;;9.20;;
5257;SDS011;2651;51.594;9.928;2023-10-19T02:28:09;20.23;;;10.32;;
5257;SDS011;2651;51.594;9.928;2023-10-19T02:29:10;18.95;;;10.65;;
5257;SDS011;2651;51.594;9.928;2023-10-19T02:30:13;19.20;;;12.20;;
5257;SDS011;2651;51.594;9.928;2023-10-19T02:31:17;21.20;;;11.02;;
5257;SDS011;2651;51.594;9.928;2023-10-19T02:32:23;15.63;;;9.38;;
5257;SDS011;2651;51.594;9.928;2023-10-19T02:33:25;18.60;;;10.60;;
5257;SDS011;2651;51.594;9.928;2023-10-19T02:34:27;17.35;;;10.45;;
5257;SDS011;2651;51.594;9.928;2023-10-19T02:35:29;18.65;;;10.20;;
5257;SDS011;2651;51.594;9.928;2023-10-19T02:36:31;20.70;;;10.23;;
5257;SDS011;2651;51.594;9.928;2023-10-19T02:37:34;18.52;;;10.52;;
5257;SDS011;2651;51.594;9.928;2023-10-19T02:38:36;23.60;;;10.43;;
5257;SDS011;2651;51.594;9.928;2023-10-19T02:39:38;19.27;;;10.77;;
5257;SDS011;2651;51.594;9.928;2023-10-19T02:40:43;17.05;;;10.18;;
5257;SDS011;2651;51.594;9.928;2023-10-19T02:41:47;16.00;;;9.70;;
5257;SDS011;2651;51.594;9.928;2023-10-19T02:42:50;19.00;;;10.75;;
5257;SDS011;2651;51.594;9.928;2023-10-19T02:43:52;15.88;;;9.82;;
5257;SDS011;2651;51.594;9.928;2023-10-19T02:45:09;21.50;;;10.60;;
5257;SDS011;2651;51.594;9.928;2023-10-19T02:46:12;16.00;;;10.10;;
5257;SDS011;2651;51.594;9.928;2023-10-19T02:47:15;17.38;;;10.13;;
5257;SDS011;2651;51.594;9.928;2023-10-19T02:48:16;18.38;;;10.65;;
5257;SDS011;2651;51.594;9.928;2023-10-19T02:49:19;15.65;;;9.38;;
5257;SDS011;2651;51.594;9.928;2023-10-19T02:50:22;13.55;;;8.95;;
5257;SDS011;2651;51.594;9.928;2023-10-19T02:51:24;20.92;;;10.00;;
5257;SDS011;2651;51.594;9.928;2023-10-19T02:52:27;16.50;;;10.45;;
5257;SDS011;2651;51.594;9.928;2023-10-19T02:53:28;18.88;;;9.95;;
5257;SDS011;2651;51.594;9.928;2023-10-19T02:54:30;21.02;;;10.02;;
5257;SDS011;2651;51.594;9.928;2023-10-19T02:55:35;22.38;;;10.23;;
5257;SDS011;2651;51.594;9.928;2023-10-19T02:56:37;17.63;;;9.13;;
5257;SDS011;2651;51.594;9.928;2023-10-19T02:57:40;15.15;;;9.27;;
5257;SDS011;2651;51.594;9.928;2023-10-19T02:58:45;17.75;;;10.35;;
5257;SDS011;2651;51.594;9.928;2023-10-19T02:59:50;20.63;;;9.35;;
5257;SDS011;2651;51.594;9.928;2023-10-19T03:00:52;15.70;;;9.85;;
5257;SDS011;2651;51.594;9.928;2023-10-19T03:01:57;17.23;;;9.77;;
5257;SDS011;2651;51.594;9.928;2023-10-19T03:03:18;15.05;;;9.23;;
5257;SDS011;2651;51.594;9.928;2023-10-19T03:04:20;19.05;;;9.80;;
5257;SDS011;2651;51.594;9.928;2023-10-19T03:05:22;15.52;;;9.45;;
5257;SDS011;2651;51.594;9.928;2023-10-19T03:06:27;17.20;;;9.75;;
5257;SDS011;2651;51.594;9.928;2023-10-19T03:07:35;20.33;;;10.20;;
5257;SDS011;2651;51.594;9.928;2023-10-19T03:08:36;15.18;;;10.20;;
5257;SDS011;2651;51.594;9.928;2023-10-19T03:09:38;18.23;;;10.32;;
5257;SDS011;2651;51.594;9.928;2023-10-19T03:10:40;14.90;;;9.60;;
5257;SDS011;2651;51.594;9.928;2023-10-19T03:11:44;36.38;;;15.30;;
5257;SDS011;2651;51.594;9.928;2023-10-19T03:12:46;45.17;;;21.67;;
5257;SDS011;2651;51.594;9.928;2023-10-19T03:13:48;47.83;;;23.20;;
5257;SDS011;2651;51.594;9.928;2023-10-19T03:14:51;49.30;;;23.70;;
5257;SDS011;2651;51.594;9.928;2023-10-19T03:15:53;58.20;;;25.10;;
5257;SDS011;2651;51.594;9.928;2023-10-19T03:16:55;33.40;;;16.52;;
5257;SDS011;2651;51.594;9.928;2023-10-19T03:17:57;33.28;;;16.35;;
5257;SDS011;2651;51.594;9.928;2023-10-19T03:18:59;39.42;;;17.35;;
5257;SDS011;2651;51.594;9.928;2023-10-19T03:20:00;43.53;;;20.60;;
5257;SDS011;2651;51.594;9.928;2023-10-19T03:21:03;50.72;;;24.10;;
5257;SDS011;2651;51.594;9.928;2023-10-19T03:22:04;29.95;;;16.65;;
5257;SDS011;2651;51.594;9.928;2023-10-19T03:23:07;26.38;;;14.38;;
5257;SDS011;2651;51.594;9.928;2023-10-19T03:24:11;29.42;;;15.65;;
5257;SDS011;2651;51.594;9.928;2023-10-19T03:25:14;31.45;;;18.00;;
5257;SDS011;2651;51.594;9.928;2023-10-19T03:26:36;17.02;;;10.38;;
5257;SDS011;2651;51.594;9.928;2023-10-19T03:27:44;15.45;;;9.40;;
5257;SDS011;2651;51.594;9.928;2023-10-19T03:28:46;18.02;;;9.63;;
5257;SDS011;2651;51.594;9.928;2023-10-19T03:29:48;34.65;;;18.02;;
5257;SDS011;2651;51.594;9.928;2023-10-19T03:31:00;21.63;;;13.35;;
5257;SDS011;2651;51.594;9.928;2023-10-19T03:32:02;24.00;;;14.05;;
5257;SDS011;2651;51.594;9.928;2023-10-19T03:33:05;25.70;;;15.07;;
5257;SDS011;2651;51.594;9.928;2023-10-19T03:34:10;40.45;;;24.85;;
5257;SDS011;2651;51.594;9.928;2023-10-19T03:35:14;34.40;;;17.40;;
5257;SDS011;2651;51.594;9.928;2023-10-19T03:36:16;27.05;;;15.20;;
5257;SDS011;2651;51.594;9.928;2023-10-19T03:37:18;40.95;;;21.63;;
5257;SDS011;2651;51.594;9.928;2023-10-19T03:38:21;42.15;;;23.15;;
5257;SDS011;2651;51.594;9.928;2023-10-19T03:39:24;32.97;;;18.85;;
5257;SDS011;2651;51.594;9.928;2023-10-19T03:40:25;26.92;;;17.10;;
5257;SDS011;2651;51.594;9.928;2023-10-19T03:41:31;24.40;;;15.80;;
5257;SDS011;2651;51.594;9.928;2023-10-19T03:42:37;29.08;;;15.75;;
5257;SDS011;2651;51.594;9.928;2023-10-19T03:43:42;33.65;;;18.17;;
5257;SDS011;2651;51.594;9.928;2023-10-19T03:44:44;35.17;;;20.55;;
5257;SDS011;2651;51.594;9.928;2023-10-19T03:45:49;29.40;;;17.50;;
5257;SDS011;2651;51.594;9.928;2023-10-19T03:46:54;22.23;;;13.35;;
5257;SDS011;2651;51.594;9.928;2023-10-19T03:47:59;25.52;;;13.60;;
5257;SDS011;2651;51.594;9.928;2023-10-19T03:49:08;20.10;;;10.52;;
5257;SDS011;2651;51.594;9.928;2023-10-19T03:50:13;19.48;;;11.85;;
5257;SDS011;2651;51.594;9.928;2023-10-19T03:51:16;17.33;;;9.82;;
5257;SDS011;2651;51.594;9.928;2023-10-19T03:52:19;10.18;;;7.15;;
5257;SDS011;2651;51.594;9.928;2023-10-19T03:53:21;12.73;;;7.68;;
5257;SDS011;2651;51.594;9.928;2023-10-19T03:54:23;14.77;;;8.10;;
5257;SDS011;2651;51.594;9.928;2023-10-19T03:55:26;10.68;;;7.55;;
5257;SDS011;2651;51.594;9.928;2023-10-19T03:56:30;10.50;;;7.60;;
5257;SDS011;2651;51.594;9.928;2023-10-19T03:57:34;9.98;;;7.00;;
5257;SDS011;2651;51.594;9.928;2023-10-19T03:58:37;10.40;;;7.70;;
5257;SDS011;2651;51.594;9.928;2023-10-19T03:59:41;12.75;;;7.78;;
5257;SDS011;2651;51.594;9.928;2023-10-19T04:00:43;9.98;;;6.68;;
5257;SDS011;2651;51.594;9.928;2023-10-19T04:01:46;12.32;;;6.95;;
5257;SDS011;2651;51.594;9.928;2023-10-19T04:02:48;11.60;;;7.65;;
5257;SDS011;2651;51.594;9.928;2023-10-19T04:03:51;12.18;;;7.05;;
5257;SDS011;2651;51.594;9.928;2023-10-19T04:04:56;11.90;;;7.40;;
5257;SDS011;2651;51.594;9.928;2023-10-19T04:05:59;11.88;;;7.47;;
5257;SDS011;2651;51.594;9.928;2023-10-19T04:07:02;15.02;;;7.60;;
5257;SDS011;2651;51.594;9.928;2023-10-19T04:08:12;10.35;;;6.68;;
5257;SDS011;2651;51.594;9.928;2023-10-19T04:09:16;9.98;;;7.40;;
5257;SDS011;2651;51.594;9.928;2023-10-19T04:10:19;9.93;;;7.97;;
5257;SDS011;2651;51.594;9.928;2023-10-19T04:11:36;8.93;;;6.38;;
5257;SDS011;2651;51.594;9.928;2023-10-19T04:12:51;7.45;;;5.65;;
5257;SDS011;2651;51.594;9.928;2023-10-19T04:13:52;9.52;;;6.13;;
5257;SDS011;2651;51.594;9.928;2023-10-19T04:14:55;8.88;;;6.20;;
5257;SDS011;2651;51.594;9.928;2023-10-19T04:15:57;11.07;;;6.18;;
5257;SDS011;2651;51.594;9.928;2023-10-19T04:16:59;7.55;;;5.88;;
5257;SDS011;2651;51.594;9.928;2023-10-19T04:18:01;8.20;;;6.25;;
5257;SDS011;2651;51.594;9.928;2023-10-19T04:19:13;11.60;;;7.85;;
5257;SDS011;2651;51.594;9.928;2023-10-19T04:20:16;12.15;;;7.20;;
5257;SDS011;2651;51.594;9.928;2023-10-19T04:21:19;12.90;;;7.00;;
5257;SDS011;2651;51.594;9.928;2023-10-19T04:22:20;8.85;;;6.13;;
5257;SDS011;2651;51.594;9.928;2023-10-19T04:23:27;13.27;;;7.15;;
5257;SDS011;2651;51.594;9.928;2023-10-19T04:24:29;11.20;;;7.18;;
5257;SDS011;2651;51.594;9.928;2023-10-19T04:25:34;9.45;;;6.43;;
5257;SDS011;2651;51.594;9.928;2023-10-19T04:26:36;10.57;;;6.70;;
5257;SDS011;2651;51.594;9.928;2023-10-19T04:27:39;7.50;;;5.75;;
5257;SDS011;2651;51.594;9.928;2023-10-19T04:28:43;8.20;;;6.13;;
5257;SDS011;2651;51.594;9.928;2023-10-19T04:29:51;10.70;;;6.30;;
5257;SDS011;2651;51.594;9.928;2023-10-19T04:30:53;9.90;;;5.57;;
5257;SDS011;2651;51.594;9.928;2023-10-19T04:31:55;6.90;;;5.15;;
5257;SDS011;2651;51.594;9.928;2023-10-19T04:32:57;9.88;;;5.80;;
5257;SDS011;2651;51.594;9.928;2023-10-19T04:33:59;8.90;;;5.80;;
5257;SDS011;2651;51.594;9.928;2023-10-19T04:35:11;9.43;;;5.75;;
5257;SDS011;2651;51.594;9.928;2023-10-19T04:36:25;7.22;;;5.65;;
5257;SDS011;2651;51.594;9.928;2023-10-19T04:37:28;9.18;;;6.18;;
5257;SDS011;2651;51.594;9.928;2023-10-19T04:38:30;9.48;;;6.22;;
5257;SDS011;2651;51.594;9.928;2023-10-19T04:39:34;8.32;;;5.68;;
5257;SDS011;2651;51.594;9.928;2023-10-19T04:40:37;9.15;;;6.43;;
5257;SDS011;2651;51.594;9.928;2023-10-19T04:41:39;8.23;;;6.07;;
5257;SDS011;2651;51.594;9.928;2023-10-19T04:42:42;10.65;;;5.90;;
5257;SDS011;2651;51.594;9.928;2023-10-19T04:43:44;11.82;;;6.90;;
5257;SDS011;2651;51.594;9.928;2023-10-19T04:44:51;8.90;;;6.35;;
5257;SDS011;2651;51.594;9.928;2023-10-19T04:45:53;7.28;;;5.30;;
5257;SDS011;2651;51.594;9.928;2023-10-19T04:46:55;7.13;;;5.32;;
5257;SDS011;2651;51.594;9.928;2023-10-19T04:47:57;7.35;;;4.80;;
5257;SDS011;2651;51.594;9.928;2023-10-19T04:48:58;6.35;;;5.32;;
5257;SDS011;2651;51.594;9.928;2023-10-19T04:50:07;7.90;;;4.90;;
5257;SDS011;2651;51.594;9.928;2023-10-19T04:51:12;7.38;;;5.78;;
5257;SDS011;2651;51.594;9.928;2023-10-19T04:52:13;8.63;;;4.80;;
5257;SDS011;2651;51.594;9.928;2023-10-19T04:53:15;5.85;;;5.18;;
5257;SDS011;2651;51.594;9.928;2023-10-19T04:54:17;6.82;;;5.28;;
5257;SDS011;2651;51.594;9.928;2023-10-19T04:55:18;7.38;;;4.85;;
5257;SDS011;2651;51.594;9.928;2023-10-19T04:56:20;9.48;;;6.22;;
5257;SDS011;2651;51.594;9.928;2023-10-19T04:57:22;9.90;;;5.75;;
5257;SDS011;2651;51.594;9.928;2023-10-19T04:58:24;6.47;;;5.32;;
5257;SDS011;2651;51.594;9.928;2023-10-19T04:59:25;6.88;;;4.75;;
5257;SDS011;2651;51.594;9.928;2023-10-19T05:00:27;8.77;;;5.13;;
5257;SDS011;2651;51.594;9.928;2023-10-19T05:01:29;5.13;;;4.63;;
5257;SDS011;2651;51.594;9.928;2023-10-19T05:02:31;8.20;;;5.05;;
5257;SDS011;2651;51.594;9.928;2023-10-19T05:03:33;6.13;;;4.40;;
5257;SDS011;2651;51.594;9.928;2023-10-19T05:04:36;8.07;;;4.82;;
5257;SDS011;2651;51.594;9.928;2023-10-19T05:05:38;5.85;;;4.90;;
5257;SDS011;2651;51.594;9.928;2023-10-19T05:06:40;7.97;;;5.13;;
5257;SDS011;2651;51.594;9.928;2023-10-19T05:07:41;5.47;;;4.20;;
5257;SDS011;2651;51.594;9.928;2023-10-19T05:08:43;5.40;;;4.75;;
5257;SDS011;2651;51.594;9.928;2023-10-19T05:09:45;5.22;;;4.68;;
5257;SDS011;2651;51.594;9.928;2023-10-19T05:10:47;4.90;;;4.30;;
5257;SDS011;2651;51.594;9.928;2023-10-19T05:11:49;8.70;;;5.28;;
5257;SDS011;2651;51.594;9.928;2023-10-19T05:12:54;4.95;;;4.50;;
5257;SDS011;2651;51.594;9.928;2023-10-19T05:13:56;4.97;;;4.57;;
5257;SDS011;2651;51.594;9.928;2023-10-19T05:14:58;7.05;;;4.90;;
5257;SDS011;2651;51.594;9.928;2023-10-19T05:16:00;6.07;;;4.72;;
5257;SDS011;2651;51.594;9.928;2023-10-19T05:17:02;5.50;;;4.25;;
5257;SDS011;2651;51.594;9.928;2023-10-19T05:18:07;4.82;;;3.90;;
5257;SDS011;2651;51.594;9.928;2023-10-19T05:19:09;4.60;;;3.92;;
5257;SDS011;2651;51.594;9.928;2023-10-19T05:20:11;4.90;;;4.00;;
5257;SDS011;2651;51.594;9.928;2023-10-19T05:21:12;6.35;;;5.00;;
5257;SDS011;2651;51.594;9.928;2023-10-19T05:22:14;5.68;;;4.60;;
5257;SDS011;2651;51.594;9.928;2023-10-19T05:23:16;6.22;;;4.40;;
5257;SDS011;2651;51.594;9.928;2023-10-19T05:24:17;5.70;;;4.45;;
5257;SDS011;2651;51.594;9.928;2023-10-19T05:25:19;5.95;;;4.65;;
5257;SDS011;2651;51.594;9.928;2023-10-19T05:26:21;4.78;;;4.35;;
5257;SDS011;2651;51.594;9.928;2023-10-19T05:27:23;6.13;;;5.07;;
5257;SDS011;2651;51.594;9.928;2023-10-19T05:28:24;6.90;;;4.85;;
5257;SDS011;2651;51.594;9.928;2023-10-19T05:29:26;5.13;;;3.72;;
5257;SDS011;2651;51.594;9.928;2023-10-19T05:30:28;4.82;;;4.32;;
5257;SDS011;2651;51.594;9.928;2023-10-19T05:31:31;6.40;;;4.80;;
5257;SDS011;2651;51.594;9.928;2023-10-19T05:32:32;7.38;;;4.38;;
5257;SDS011;2651;51.594;9.928;2023-10-19T05:33:34;5.70;;;4.70;;
5257;SDS011;2651;51.594;9.928;2023-10-19T05:34:36;6.10;;;4.00;;
5257;SDS011;2651;51.594;9.928;2023-10-19T05:35:38;6.93;;;4.30;;
5257;SDS011;2651;51.594;9.928;2023-10-19T05:36:42;7.97;;;4.38;;
5257;SDS011;2651;51.594;9.928;2023-10-19T05:37:47;4.43;;;4.03;;
5257;SDS011;2651;51.594;9.928;2023-10-19T05:38:50;4.93;;;4.35;;
5257;SDS011;2651;51.594;9.928;2023-10-19T05:39:52;7.22;;;4.78;;
5257;SDS011;2651;51.594;9.928;2023-10-19T05:40:56;7.15;;;5.55;;
5257;SDS011;2651;51.594;9.928;2023-10-19T05:41:58;10.82;;;6.43;;
5257;SDS011;2651;51.594;9.928;2023-10-19T05:43:03;6.38;;;5.30;;
5257;SDS011;2651;51.594;9.928;2023-10-19T05:44:05;13.98;;;5.53;;
5257;SDS011;2651;51.594;9.928;2023-10-19T05:45:07;6.95;;;4.85;;
5257;SDS011;2651;51.594;9.928;2023-10-19T05:46:09;5.95;;;4.30;;
5257;SDS011;2651;51.594;9.928;2023-10-19T05:47:11;6.78;;;4.25;;
5257;SDS011;2651;51.594;9.928;2023-10-19T05:48:13;15.13;;;8.32;;
5257;SDS011;2651;51.594;9.928;2023-10-19T05:49:16;7.50;;;5.45;;
5257;SDS011;2651;51.594;9.928;2023-10-19T05:50:18;6.55;;;5.28;;
5257;SDS011;2651;51.594;9.928;2023-10-19T05:51:20;6.32;;;4.68;;
5257;SDS011;2651;51.594;9.928;2023-10-19T05:52:23;5.80;;;4.70;;
5257;SDS011;2651;51.594;9.928;2023-10-19T05:53:24;7.53;;;4.65;;
5257;SDS011;2651;51.594;9.928;2023-10-19T05:54:26;4.88;;;3.90;;
5257;SDS011;2651;51.594;9.928;2023-10-19T05:55:28;6.10;;;4.65;;
5257;SDS011;2651;51.594;9.928;2023-10-19T05:56:31;4.90;;;4.20;;
5257;SDS011;2651;51.594;9.928;2023-10-19T05:57:35;4.88;;;3.97;;
5257;SDS011;2651;51.594;9.928;2023-10-19T05:58:41;4.88;;;4.38;;
5257;SDS011;2651;51.594;9.928;2023-10-19T05:59:43;4.10;;;3.25;;
5257;SDS011;2651;51.594;9.928;2023-10-19T06:00:44;4.72;;;3.92;;
5257;SDS011;2651;51.594;9.928;2023-10-19T06:01:46;6.15;;;4.60;;
5257;SDS011;2651;51.594;9.928;2023-10-19T06:02:48;9.57;;;5.45;;
5257;SDS011;2651;51.594;9.928;2023-10-19T06:03:50;7.85;;;5.10;;
5257;SDS011;2651;51.594;9.928;2023-10-19T06:04:53;7.35;;;4.60;;
5257;SDS011;2651;51.594;9.928;2023-10-19T06:05:55;6.22;;;4.63;;
5257;SDS011;2651;51.594;9.928;2023-10-19T06:06:57;5.25;;;4.50;;
5257;SDS011;2651;51.594;9.928;2023-10-19T06:07:59;7.78;;;4.80;;
5257;SDS011;2651;51.594;9.928;2023-10-19T06:09:01;7.45;;;5.35;;
5257;SDS011;2651;51.594;9.928;2023-10-19T06:10:03;10.60;;;4.68;;
5257;SDS011;2651;51.594;9.928;2023-10-19T06:11:05;5.82;;;4.75;;
5257;SDS011;2651;51.594;9.928;2023-10-19T06:12:08;4.57;;;4.18;;
5257;SDS011;2651;51.594;9.928;2023-10-19T06:13:10;7.35;;;5.53;;
5257;SDS011;2651;51.594;9.928;2023-10-19T06:14:12;4.72;;;4.00;;
5257;SDS011;2651;51.594;9.928;2023-10-19T06:15:15;5.30;;;4.22;;
5257;SDS011;2651;51.594;9.928;2023-10-19T06:16:17;5.95;;;4.53;;
5257;SDS011;2651;51.594;9.928;2023-10-19T06:17:19;7.68;;;5.30;;
5257;SDS011;2651;51.594;9.928;2023-10-19T06:18:21;7.18;;;5.50;;
5257;SDS011;2651;51.594;9.928;2023-10-19T06:19:23;6.85;;;5.50;;
5257;SDS011;2651;51.594;9.928;2023-10-19T06:20:25;6.95;;;5.60;;
5257;SDS011;2651;51.594;9.928;2023-10-19T06:21:30;7.47;;;5.57;;
5257;SDS011;2651;51.594;9.928;2023-10-19T06:22:32;7.65;;;5.30;;
5257;SDS011;2651;51.594;9.928;2023-10-19T06:23:34;7.38;;;5.65;;
5257;SDS011;2651;51.594;9.928;2023-10-19T06:24:37;6.20;;;4.80;;
5257;SDS011;2651;51.594;9.928;2023-10-19T06:25:39;7.22;;;5.55;;
5257;SDS011;2651;51.594;9.928;2023-10-19T06:26:44;9.80;;;6.57;;
5257;SDS011;2651;51.594;9.928;2023-10-19T06:27:46;10.88;;;5.95;;
5257;SDS011;2651;51.594;9.928;2023-10-19T06:28:48;9.07;;;6.32;;
5257;SDS011;2651;51.594;9.928;2023-10-19T06:29:52;9.05;;;6.57;;
5257;SDS011;2651;51.594;9.928;2023-10-19T06:30:54;7.68;;;5.20;;
5257;SDS011;2651;51.594;9.928;2023-10-19T06:31:55;7.60;;;6.10;;
5257;SDS011;2651;51.594;9.928;2023-10-19T06:32:58;8.93;;;6.35;;